Time;durP1;ratioP1;P1;durP2;ratioP2;P2;SDS_P1;SDS_P2;PMS_P1;PMS_P2;Temp;Humidity;BMP_temperature;BMP_pressure;BME280_temperature;BME280_humidity;BME280_pressure;Samples;Min_cycle;Max_cycle;Signal;HPM_P1;HPM_P2
2022/11/18 00:02:01;;;;;;;40.67;13.32;;;;;;;;;;4980063;28;20344;-72
2022/11/18 00:04:28;;;;;;;33.85;11.82;;;;;;;;;;4977291;28;20044;-72
2022/11/18 00:06:57;;;;;;;39.78;13.50;;;;;;;;;;4982539;28;20156;-72
2022/11/18 00:09:22;;;;;;;59.10;16.67;;;;;;;;;;4993145;28;20037;-72
2022/11/18 00:14:34;;;;;;;41.53;13.27;;;;;;;;;;4976807;28;20144;-72
2022/11/18 00:17:03;;;;;;;44.05;14.32;;;;;;;;;;4979786;28;20251;-72
2022/11/18 00:19:30;;;;;;;61.90;17.20;;;;;;;;;;4977390;28;20033;-72
2022/11/18 00:21:56;;;;;;;36.53;12.82;;;;;;;;;;4973772;28;20414;-72
2022/11/18 00:24:21;;;;;;;48.20;16.17;;;;;;;;;;4981046;28;20045;-72
2022/11/18 00:26:47;;;;;;;45.00;15.70;;;;;;;;;;4982253;28;20044;-72
2022/11/18 00:29:12;;;;;;;48.72;15.48;;;;;;;;;;4996047;28;20045;-71
2022/11/18 00:31:38;;;;;;;38.33;15.25;;;;;;;;;;4979483;28;20757;-71
2022/11/18 00:34:05;;;;;;;35.55;13.10;;;;;;;;;;4992002;28;20116;-71
2022/11/18 00:36:30;;;;;;;30.70;13.32;;;;;;;;;;5002862;28;20112;-71
2022/11/18 00:38:58;;;;;;;54.75;18.02;;;;;;;;;;4980971;28;20033;-72
2022/11/18 00:41:23;;;;;;;52.25;21.08;;;;;;;;;;4977139;28;20042;-71
2022/11/18 00:43:48;;;;;;;83.82;31.23;;;;;;;;;;4979351;28;20168;-71
2022/11/18 00:46:14;;;;;;;69.43;28.58;;;;;;;;;;4979791;28;20167;-71
2022/11/18 00:48:40;;;;;;;65.50;24.05;;;;;;;;;;4977709;28;20034;-71
2022/11/18 00:51:10;;;;;;;52.88;21.38;;;;;;;;;;4979659;28;20716;-72
2022/11/18 00:53:36;;;;;;;64.28;25.88;;;;;;;;;;4979562;28;20172;-71
2022/11/18 00:56:04;;;;;;;52.63;19.40;;;;;;;;;;4978727;28;20290;-71
2022/11/18 00:58:29;;;;;;;40.92;13.50;;;;;;;;;;5010844;28;20566;-71
2022/11/18 01:00:55;;;;;;;67.10;19.40;;;;;;;;;;4978017;28;20495;-71
2022/11/18 01:03:24;;;;;;;67.35;18.63;;;;;;;;;;4977012;28;20755;-73
2022/11/18 01:05:49;;;;;;;39.58;14.55;;;;;;;;;;4993593;28;20473;-71
2022/11/18 01:08:17;;;;;;;56.88;17.75;;;;;;;;;;4980508;28;22272;-72
2022/11/18 01:10:42;;;;;;;40.40;14.23;;;;;;;;;;4978980;28;20747;-71
2022/11/18 01:13:18;;;;;;;68.72;19.13;;;;;;;;;;4952955;28;20101;-72
2022/11/18 01:15:45;;;;;;;53.83;17.13;;;;;;;;;;4970186;28;20057;-72
2022/11/18 01:18:10;;;;;;;41.83;14.85;;;;;;;;;;4991128;28;20041;-72
2022/11/18 01:20:35;;;;;;;40.33;14.77;;;;;;;;;;4979597;28;20033;-72
2022/11/18 01:23:04;;;;;;;31.77;13.15;;;;;;;;;;4977918;28;20037;-71
2022/11/18 01:25:30;;;;;;;40.88;15.48;;;;;;;;;;4979532;28;20426;-72
2022/11/18 01:27:55;;;;;;;37.42;15.00;;;;;;;;;;4978062;28;20268;-72
2022/11/18 01:30:21;;;;;;;45.22;17.63;;;;;;;;;;4977898;28;20033;-71
2022/11/18 01:32:50;;;;;;;60.75;20.73;;;;;;;;;;5008501;28;20326;-71
2022/11/18 01:35:15;;;;;;;39.80;15.68;;;;;;;;;;4974528;28;20491;-71
2022/11/18 01:37:41;;;;;;;46.55;17.67;;;;;;;;;;4977488;28;20376;-72
2022/11/18 01:40:07;;;;;;;63.55;20.65;;;;;;;;;;4977112;28;20518;-71
2022/11/18 01:42:35;;;;;;;44.22;16.83;;;;;;;;;;4967913;28;20037;-71
2022/11/18 01:45:03;;;;;;;39.80;15.30;;;;;;;;;;4998900;28;20501;-71
2022/11/18 01:47:33;;;;;;;43.50;16.85;;;;;;;;;;4976773;28;20111;-71
2022/11/18 01:49:59;;;;;;;52.70;19.02;;;;;;;;;;4976554;28;20043;-71
2022/11/18 01:52:25;;;;;;;40.85;17.08;;;;;;;;;;4978483;28;20491;-72
2022/11/18 01:54:54;;;;;;;53.58;20.17;;;;;;;;;;4972433;28;20072;-71
2022/11/18 01:57:22;;;;;;;36.08;17.85;;;;;;;;;;5009411;28;20049;-70
2022/11/18 01:59:53;;;;;;;34.50;18.52;;;;;;;;;;4948642;28;20108;-71
2022/11/18 02:02:19;;;;;;;45.50;18.52;;;;;;;;;;4970234;28;20119;-70
2022/11/18 02:04:51;;;;;;;48.20;19.38;;;;;;;;;;4964227;28;20042;-71
2022/11/18 02:07:20;;;;;;;45.08;18.13;;;;;;;;;;4969470;28;20060;-71
2022/11/18 02:09:48;;;;;;;69.93;23.10;;;;;;;;;;4973332;28;20045;-72
2022/11/18 02:12:13;;;;;;;61.30;24.27;;;;;;;;;;4976348;28;20119;-72
2022/11/18 02:14:44;;;;;;;52.22;22.27;;;;;;;;;;4976771;28;20046;-71
2022/11/18 02:17:28;;;;;;;52.65;21.55;;;;;;;;;;4977790;28;20103;-71
2022/11/18 02:20:09;;;;;;;59.03;21.88;;;;;;;;;;4978335;28;20038;-71
2022/11/18 02:22:53;;;;;;;48.88;19.33;;;;;;;;;;4973348;28;20048;-71
2022/11/18 02:25:22;;;;;;;45.95;18.33;;;;;;;;;;4976830;28;20411;-70
2022/11/18 02:27:49;;;;;;;40.78;18.63;;;;;;;;;;4986572;28;20086;-71
2022/11/18 02:30:15;;;;;;;48.60;19.92;;;;;;;;;;4985941;28;20739;-71
2022/11/18 02:32:54;;;;;;;63.05;22.70;;;;;;;;;;4976418;28;20033;-71
2022/11/18 02:35:22;;;;;;;43.50;18.38;;;;;;;;;;4975856;28;20064;-71
2022/11/18 02:38:03;;;;;;;51.90;20.73;;;;;;;;;;4990336;28;20475;-71
2022/11/18 02:40:37;;;;;;;59.42;22.80;;;;;;;;;;4976829;28;20037;-71
2022/11/18 02:43:14;;;;;;;61.75;21.77;;;;;;;;;;4970595;28;20040;-71
2022/11/18 02:45:43;;;;;;;73.95;24.85;;;;;;;;;;4953319;28;20116;-71
2022/11/18 02:48:10;;;;;;;62.88;24.13;;;;;;;;;;4995865;28;20044;-71
2022/11/18 02:50:37;;;;;;;48.45;19.75;;;;;;;;;;5009817;28;20163;-71
2022/11/18 02:53:04;;;;;;;44.83;19.85;;;;;;;;;;5005600;28;20065;-71
2022/11/18 02:55:31;;;;;;;52.83;23.20;;;;;;;;;;4978661;28;20679;-71
2022/11/18 02:57:57;;;;;;;75.00;27.15;;;;;;;;;;4975909;28;20168;-71
2022/11/18 03:00:25;;;;;;;82.65;27.20;;;;;;;;;;4998273;28;20155;-71
2022/11/18 03:02:53;;;;;;;51.42;21.23;;;;;;;;;;4974595;28;20037;-71
2022/11/18 03:05:37;;;;;;;39.03;18.23;;;;;;;;;;4978304;28;20322;-72
2022/11/18 03:08:10;;;;;;;27.25;15.77;;;;;;;;;;4977232;28;22061;-72
2022/11/18 03:10:39;;;;;;;36.20;17.42;;;;;;;;;;4990302;28;20036;-71
2022/11/18 03:13:10;;;;;;;42.65;18.75;;;;;;;;;;4977826;28;20435;-71
2022/11/18 03:15:49;;;;;;;50.60;23.10;;;;;;;;;;4977744;28;20038;-71
2022/11/18 03:18:21;;;;;;;73.57;26.77;;;;;;;;;;4977402;28;20045;-71
2022/11/18 03:20:49;;;;;;;62.08;23.45;;;;;;;;;;4981775;28;20033;-72
2022/11/18 03:23:27;;;;;;;64.65;21.70;;;;;;;;;;4976661;28;20371;-72
2022/11/18 03:25:56;;;;;;;41.15;20.25;;;;;;;;;;5008566;28;20433;-71
2022/11/18 03:28:26;;;;;;;28.00;16.30;;;;;;;;;;4974334;28;20042;-71
2022/11/18 03:31:01;;;;;;;23.45;14.77;;;;;;;;;;4975151;28;20084;-74
2022/11/18 03:33:32;;;;;;;37.47;19.13;;;;;;;;;;4989076;28;20656;-72
2022/11/18 03:36:00;;;;;;;33.47;18.07;;;;;;;;;;4979623;28;20040;-71
2022/11/18 03:38:28;;;;;;;27.20;15.75;;;;;;;;;;4975386;28;20041;-71
2022/11/18 03:40:58;;;;;;;41.63;18.95;;;;;;;;;;4995983;28;20042;-72
2022/11/18 03:43:26;;;;;;;30.55;17.67;;;;;;;;;;4976896;28;20038;-73
2022/11/18 03:45:53;;;;;;;52.90;19.67;;;;;;;;;;5001052;28;21983;-72
2022/11/18 03:48:23;;;;;;;31.80;16.38;;;;;;;;;;4991460;28;20321;-72
2022/11/18 03:51:12;;;;;;;41.78;18.52;;;;;;;;;;4973127;28;21684;-70
2022/11/18 03:53:42;;;;;;;44.03;19.05;;;;;;;;;;4964631;28;20136;-73
2022/11/18 03:56:29;;;;;;;47.40;20.63;;;;;;;;;;4979968;28;20075;-73
2022/11/18 03:59:09;;;;;;;41.42;18.17;;;;;;;;;;4996358;28;20697;-73
2022/11/18 04:01:34;;;;;;;40.15;19.75;;;;;;;;;;4996985;28;20488;-73
2022/11/18 04:04:00;;;;;;;33.05;17.05;;;;;;;;;;4982689;28;20301;-72
2022/11/18 04:06:51;;;;;;;35.03;17.23;;;;;;;;;;4980810;28;20049;-72
2022/11/18 04:09:18;;;;;;;57.25;20.48;;;;;;;;;;4979649;28;20136;-73
2022/11/18 04:12:01;;;;;;;36.05;18.02;;;;;;;;;;4979598;28;20316;-72
2022/11/18 04:14:27;;;;;;;48.80;20.77;;;;;;;;;;4981133;28;20444;-73
2022/11/18 04:16:53;;;;;;;55.47;20.60;;;;;;;;;;4981919;28;20036;-72
2022/11/18 04:19:18;;;;;;;39.05;18.73;;;;;;;;;;4996054;28;20033;-72
2022/11/18 04:21:45;;;;;;;71.00;24.33;;;;;;;;;;4998256;28;20040;-72
2022/11/18 04:24:10;;;;;;;59.03;22.38;;;;;;;;;;4999917;28;20041;-72
2022/11/18 04:26:36;;;;;;;41.40;18.95;;;;;;;;;;5001826;28;21920;-72
2022/11/18 04:29:02;;;;;;;29.08;15.88;;;;;;;;;;4992186;28;20032;-72
2022/11/18 04:31:27;;;;;;;35.17;18.17;;;;;;;;;;4997339;28;20033;-72
2022/11/18 04:33:52;;;;;;;44.13;19.92;;;;;;;;;;4991980;28;20670;-72
2022/11/18 04:36:18;;;;;;;33.30;17.23;;;;;;;;;;4979993;28;20833;-71
2022/11/18 04:38:44;;;;;;;35.95;18.58;;;;;;;;;;4980590;28;20111;-72
2022/11/18 04:41:10;;;;;;;35.80;18.52;;;;;;;;;;4980185;28;20045;-72
2022/11/18 04:43:35;;;;;;;46.40;20.20;;;;;;;;;;4977472;28;20033;-73
2022/11/18 04:46:01;;;;;;;46.60;21.27;;;;;;;;;;4972245;28;20933;-71
2022/11/18 04:48:32;;;;;;;44.47;19.42;;;;;;;;;;4991666;28;20116;-71
2022/11/18 04:51:04;;;;;;;34.75;17.67;;;;;;;;;;4980859;28;20064;-71
2022/11/18 04:53:29;;;;;;;30.42;15.95;;;;;;;;;;4970308;28;20298;-73
2022/11/18 04:55:54;;;;;;;40.28;19.38;;;;;;;;;;4979674;28;20313;-72
2022/11/18 04:58:22;;;;;;;46.85;20.20;;;;;;;;;;5011289;28;20041;-72
2022/11/18 05:00:49;;;;;;;47.45;21.13;;;;;;;;;;4981282;28;20835;-73
2022/11/18 05:03:14;;;;;;;50.13;22.27;;;;;;;;;;4980507;28;20205;-72
2022/11/18 05:05:40;;;;;;;63.05;24.05;;;;;;;;;;4977706;28;20071;-72
2022/11/18 05:08:06;;;;;;;49.30;20.35;;;;;;;;;;4980151;28;20495;-72
2022/11/18 05:10:31;;;;;;;48.13;21.95;;;;;;;;;;4979231;28;20111;-73
2022/11/18 05:12:56;;;;;;;43.70;20.33;;;;;;;;;;5010851;28;20037;-73
2022/11/18 05:15:24;;;;;;;72.80;26.98;;;;;;;;;;4976352;28;20037;-72
2022/11/18 05:17:52;;;;;;;43.78;19.67;;;;;;;;;;4971788;28;20496;-72
2022/11/18 05:20:18;;;;;;;44.65;19.73;;;;;;;;;;4980267;28;20425;-73
2022/11/18 05:22:43;;;;;;;43.97;20.08;;;;;;;;;;4979263;28;20064;-73
2022/11/18 05:25:08;;;;;;;50.58;21.00;;;;;;;;;;4977681;28;20462;-73
2022/11/18 05:27:43;;;;;;;43.90;19.92;;;;;;;;;;4978777;28;20446;-70
2022/11/18 05:30:11;;;;;;;62.75;23.80;;;;;;;;;;4980423;28;20037;-73
2022/11/18 05:32:37;;;;;;;56.97;21.85;;;;;;;;;;4975341;28;20029;-73
2022/11/18 05:35:06;;;;;;;41.42;19.95;;;;;;;;;;4977845;28;20551;-71
2022/11/18 05:37:32;;;;;;;77.82;27.85;;;;;;;;;;4977481;28;20486;-72
2022/11/18 05:39:57;;;;;;;42.70;21.60;;;;;;;;;;4978426;28;20517;-73
2022/11/18 05:45:06;;;;;;;58.03;22.23;;;;;;;;;;4979299;28;20052;-71
2022/11/18 05:47:58;;;;;;;43.40;19.38;;;;;;;;;;4980930;28;20049;-71
2022/11/18 05:50:17;;;;;;;40.63;19.67;;;;;;;;;;4996721;28;20040;-71
2022/11/18 05:52:43;;;;;;;38.35;17.80;;;;;;;;;;4996482;28;20611;-71
2022/11/18 05:55:09;;;;;;;56.75;22.58;;;;;;;;;;4985697;28;20430;-71
2022/11/18 05:57:35;;;;;;;39.60;18.50;;;;;;;;;;4976607;28;20133;-71
2022/11/18 06:00:01;;;;;;;47.13;18.98;;;;;;;;;;4980393;28;20045;-71
2022/11/18 06:02:29;;;;;;;49.08;19.33;;;;;;;;;;4978907;28;20040;-71
2022/11/18 06:05:01;;;;;;;75.40;25.77;;;;;;;;;;4980109;28;20045;-72
2022/11/18 06:07:29;;;;;;;56.75;21.48;;;;;;;;;;4977161;28;20049;-72
2022/11/18 06:09:57;;;;;;;57.08;20.80;;;;;;;;;;4977486;28;20037;-71
2022/11/18 06:12:26;;;;;;;37.30;16.98;;;;;;;;;;5008324;28;20041;-71
2022/11/18 06:14:57;;;;;;;40.65;18.20;;;;;;;;;;4968694;28;20037;-71
2022/11/18 06:17:32;;;;;;;47.75;19.30;;;;;;;;;;4984897;28;20580;-71
2022/11/18 06:20:01;;;;;;;38.75;16.70;;;;;;;;;;4971683;28;20557;-71
2022/11/18 06:22:29;;;;;;;46.15;17.73;;;;;;;;;;4968854;28;20119;-70
2022/11/18 06:24:54;;;;;;;37.70;17.10;;;;;;;;;;4973743;28;20129;-71
2022/11/18 06:27:22;;;;;;;57.67;21.48;;;;;;;;;;4973031;28;20045;-71
2022/11/18 06:29:48;;;;;;;47.85;20.15;;;;;;;;;;4990435;28;20243;-71
2022/11/18 06:32:16;;;;;;;39.65;17.33;;;;;;;;;;4985603;28;20068;-71
2022/11/18 06:34:44;;;;;;;32.25;16.65;;;;;;;;;;4994043;28;21780;-71
2022/11/18 06:37:13;;;;;;;52.08;20.20;;;;;;;;;;4993924;28;20276;-71
2022/11/18 06:39:39;;;;;;;66.97;22.80;;;;;;;;;;5011688;28;20036;-70
2022/11/18 06:42:04;;;;;;;40.92;17.05;;;;;;;;;;5000629;28;20633;-71
2022/11/18 06:44:32;;;;;;;31.20;15.70;;;;;;;;;;5001247;28;20041;-71
2022/11/18 06:47:00;;;;;;;29.60;14.52;;;;;;;;;;4966088;28;20985;-71
2022/11/18 06:49:27;;;;;;;58.35;22.65;;;;;;;;;;4995291;28;20294;-71
2022/11/18 06:51:54;;;;;;;51.42;19.38;;;;;;;;;;4974888;28;20041;-71
2022/11/18 06:54:20;;;;;;;77.70;25.73;;;;;;;;;;4976816;28;20322;-71
2022/11/18 06:56:45;;;;;;;50.22;20.75;;;;;;;;;;4976900;28;20573;-71
2022/11/18 06:59:10;;;;;;;50.78;20.13;;;;;;;;;;4975438;28;20037;-70
2022/11/18 07:01:38;;;;;;;64.97;22.33;;;;;;;;;;4973387;28;20033;-70
2022/11/18 07:04:03;;;;;;;83.13;27.40;;;;;;;;;;4973385;28;20473;-70
2022/11/18 07:06:30;;;;;;;57.47;21.48;;;;;;;;;;4977709;28;20046;-70
2022/11/18 07:09:01;;;;;;;52.08;19.67;;;;;;;;;;4993808;28;20150;-70
2022/11/18 07:11:26;;;;;;;90.57;26.45;;;;;;;;;;5024678;28;20036;-70
2022/11/18 07:13:54;;;;;;;49.63;19.08;;;;;;;;;;4996786;28;20025;-70
2022/11/18 07:16:23;;;;;;;36.55;15.95;;;;;;;;;;5020239;28;20037;-71
2022/11/18 07:18:49;;;;;;;89.28;26.80;;;;;;;;;;4996873;28;20211;-70
2022/11/18 07:21:16;;;;;;;61.33;21.35;;;;;;;;;;4996485;28;20025;-70
2022/11/18 07:23:42;;;;;;;63.20;21.40;;;;;;;;;;4996914;28;20042;-70
2022/11/18 07:26:08;;;;;;;66.18;22.90;;;;;;;;;;4994088;28;20044;-70
2022/11/18 07:28:33;;;;;;;29.20;15.65;;;;;;;;;;4997692;28;20437;-69
2022/11/18 07:31:09;;;;;;;52.97;18.63;;;;;;;;;;5000323;28;20033;-70
2022/11/18 07:33:35;;;;;;;39.80;16.95;;;;;;;;;;4996316;28;20037;-69
2022/11/18 07:36:05;;;;;;;48.13;19.05;;;;;;;;;;5000448;28;20126;-69
2022/11/18 07:38:31;;;;;;;27.38;15.30;;;;;;;;;;5000348;28;20098;-69
2022/11/18 07:41:07;;;;;;;31.65;13.82;;;;;;;;;;4999605;28;20041;-70
2022/11/18 07:43:33;;;;;;;42.17;18.33;;;;;;;;;;4999429;28;20268;-70
2022/11/18 07:46:06;;;;;;;34.28;16.90;;;;;;;;;;4995205;28;20037;-70
2022/11/18 07:48:32;;;;;;;44.38;18.27;;;;;;;;;;4998333;28;20476;-70
2022/11/18 07:50:59;;;;;;;53.13;21.38;;;;;;;;;;5000524;28;20287;-70
2022/11/18 07:53:24;;;;;;;47.92;18.67;;;;;;;;;;5000942;28;20707;-70
2022/11/18 07:55:49;;;;;;;35.50;16.92;;;;;;;;;;5003828;28;20033;-70
2022/11/18 07:58:17;;;;;;;48.90;18.83;;;;;;;;;;5003484;28;20188;-70
2022/11/18 08:00:42;;;;;;;28.38;15.18;;;;;;;;;;5003213;28;20036;-70
2022/11/18 08:03:07;;;;;;;37.10;16.02;;;;;;;;;;5002636;28;20158;-70
2022/11/18 08:05:37;;;;;;;41.35;19.70;;;;;;;;;;4995695;28;20030;-71
2022/11/18 08:08:05;;;;;;;29.65;14.18;;;;;;;;;;4983656;28;20513;-70
2022/11/18 08:10:31;;;;;;;36.33;16.30;;;;;;;;;;4982552;28;20175;-70
2022/11/18 08:12:59;;;;;;;41.67;19.25;;;;;;;;;;4982670;28;20328;-70
2022/11/18 08:15:24;;;;;;;37.40;17.40;;;;;;;;;;4981748;28;20136;-70
2022/11/18 08:17:50;;;;;;;29.13;14.30;;;;;;;;;;4982737;28;20068;-70
2022/11/18 08:20:16;;;;;;;34.55;14.25;;;;;;;;;;4983689;28;20037;-70
2022/11/18 08:22:41;;;;;;;38.38;15.70;;;;;;;;;;4985716;28;20120;-69
2022/11/18 08:25:09;;;;;;;30.20;15.32;;;;;;;;;;4965080;28;20239;-70
2022/11/18 08:27:39;;;;;;;28.23;14.55;;;;;;;;;;5001989;28;20045;-70
2022/11/18 08:30:07;;;;;;;31.70;15.98;;;;;;;;;;5001408;28;20274;-70
2022/11/18 08:32:32;;;;;;;32.00;15.32;;;;;;;;;;5027133;28;20041;-69
2022/11/18 08:34:58;;;;;;;34.28;14.73;;;;;;;;;;4992449;28;20402;-70
2022/11/18 08:41:02;;;;;;;34.78;14.32;;;;;;;;;;4964425;28;20040;-73
2022/11/18 08:43:33;;;;;;;35.45;15.52;;;;;;;;;;4958500;28;20344;-73
2022/11/18 08:46:03;;;;;;;38.95;15.10;;;;;;;;;;4946593;28;20040;-70
2022/11/18 08:48:29;;;;;;;28.65;13.98;;;;;;;;;;5003880;28;20041;-70
2022/11/18 08:51:01;;;;;;;28.70;13.35;;;;;;;;;;4990921;28;20313;-71
2022/11/18 08:53:31;;;;;;;36.10;14.32;;;;;;;;;;4955055;28;20025;-71
2022/11/18 08:55:58;;;;;;;33.35;13.50;;;;;;;;;;5015195;28;20115;-72
2022/11/18 08:58:24;;;;;;;30.10;12.93;;;;;;;;;;4998872;28;20104;-72
2022/11/18 09:00:50;;;;;;;30.77;14.50;;;;;;;;;;5000240;28;20025;-72
2022/11/18 09:03:15;;;;;;;70.93;25.13;;;;;;;;;;4993872;28;20037;-72
2022/11/18 09:05:40;;;;;;;76.95;24.98;;;;;;;;;;4994719;28;20060;-72
2022/11/18 09:08:05;;;;;;;32.92;14.93;;;;;;;;;;4976666;28;20954;-72
2022/11/18 09:10:31;;;;;;;32.55;14.30;;;;;;;;;;4979731;28;20046;-70
2022/11/18 09:12:57;;;;;;;34.75;13.18;;;;;;;;;;4973648;28;20030;-72
2022/11/18 09:15:31;;;;;;;30.23;13.00;;;;;;;;;;4946086;28;20032;-72
2022/11/18 09:17:59;;;;;;;28.17;13.75;;;;;;;;;;4968763;28;20616;-69
2022/11/18 09:20:24;;;;;;;24.52;11.18;;;;;;;;;;4977399;28;20378;-69
2022/11/18 09:22:50;;;;;;;31.77;14.00;;;;;;;;;;4981519;28;20068;-69
2022/11/18 09:25:15;;;;;;;28.38;12.63;;;;;;;;;;4978072;28;20028;-69
2022/11/18 09:27:43;;;;;;;26.77;11.15;;;;;;;;;;5005943;28;21166;-71
2022/11/18 09:30:11;;;;;;;39.33;17.00;;;;;;;;;;4972869;28;21765;-71
2022/11/18 09:32:55;;;;;;;39.22;17.33;;;;;;;;;;4963827;28;21952;-71
2022/11/18 09:35:23;;;;;;;20.88;9.85;;;;;;;;;;4918785;28;20400;-71
2022/11/18 09:37:49;;;;;;;22.70;10.50;;;;;;;;;;4923350;28;20045;-71
2022/11/18 09:40:15;;;;;;;22.80;12.43;;;;;;;;;;5000827;28;20508;-71
2022/11/18 09:42:56;;;;;;;20.85;10.90;;;;;;;;;;4972702;28;20038;-70
2022/11/18 09:45:29;;;;;;;16.73;8.70;;;;;;;;;;4995113;28;20327;-70
2022/11/18 09:47:59;;;;;;;28.00;10.63;;;;;;;;;;4996735;28;20076;-71
2022/11/18 09:50:27;;;;;;;19.15;7.68;;;;;;;;;;4997967;28;20037;-71
2022/11/18 09:53:14;;;;;;;16.95;8.40;;;;;;;;;;4969511;28;20037;-71
2022/11/18 09:55:56;;;;;;;16.50;7.57;;;;;;;;;;4965565;28;20163;-70
2022/11/18 09:58:33;;;;;;;18.67;6.80;;;;;;;;;;4959619;28;20041;-70
2022/11/18 10:00:59;;;;;;;15.73;7.68;;;;;;;;;;5011918;28;20283;-70
2022/11/18 10:03:28;;;;;;;13.63;7.30;;;;;;;;;;4978527;28;20364;-72
2022/11/18 10:06:08;;;;;;;14.80;6.50;;;;;;;;;;4978721;28;20060;-72
2022/11/18 10:08:39;;;;;;;11.57;5.68;;;;;;;;;;5005573;28;20080;-68
2022/11/18 10:11:22;;;;;;;13.60;6.30;;;;;;;;;;4978951;28;20162;-68
2022/11/18 10:14:09;;;;;;;13.40;6.90;;;;;;;;;;4972618;28;21671;-69
2022/11/18 10:16:49;;;;;;;14.30;7.68;;;;;;;;;;4977732;28;20029;-69
2022/11/18 10:19:18;;;;;;;14.52;6.32;;;;;;;;;;4975425;28;20044;-66
2022/11/18 10:24:50;;;;;;;15.20;8.52;;;;;;;;;;4980453;28;20042;-72
2022/11/18 10:27:18;;;;;;;16.87;8.93;;;;;;;;;;4998486;28;20481;-69
2022/11/18 10:29:44;;;;;;;20.92;10.05;;;;;;;;;;4965590;28;20325;-71
2022/11/18 10:32:17;;;;;;;28.17;16.75;;;;;;;;;;4998573;28;20465;-72
2022/11/18 10:34:49;;;;;;;32.63;19.20;;;;;;;;;;4995989;28;20033;-69
2022/11/18 10:37:20;;;;;;;25.05;12.77;;;;;;;;;;4992695;28;20055;-69
2022/11/18 10:39:49;;;;;;;27.63;12.85;;;;;;;;;;4983713;28;20241;-71
2022/11/18 10:42:21;;;;;;;46.20;16.75;;;;;;;;;;5001423;28;20345;-70
2022/11/18 10:44:55;;;;;;;23.42;11.38;;;;;;;;;;4956106;28;20440;-72
2022/11/18 10:47:26;;;;;;;24.52;10.98;;;;;;;;;;4977407;28;20513;-67
2022/11/18 10:49:52;;;;;;;23.45;9.38;;;;;;;;;;4975939;28;20298;-67
2022/11/18 10:52:18;;;;;;;38.72;12.70;;;;;;;;;;4976181;28;20045;-68
2022/11/18 10:54:43;;;;;;;39.88;13.52;;;;;;;;;;4976802;28;20151;-70
2022/11/18 10:57:17;;;;;;;40.47;13.90;;;;;;;;;;4976245;28;20037;-69
2022/11/18 10:59:49;;;;;;;50.75;18.35;;;;;;;;;;4976546;28;20119;-71
2022/11/18 11:02:17;;;;;;;43.40;16.02;;;;;;;;;;4974655;28;20294;-69
2022/11/18 11:04:45;;;;;;;29.65;11.82;;;;;;;;;;4978878;28;20273;-69
2022/11/18 11:07:35;;;;;;;53.90;18.63;;;;;;;;;;4976839;28;20762;-68
2022/11/18 11:10:03;;;;;;;42.42;15.60;;;;;;;;;;4977956;28;20533;-70
2022/11/18 11:12:32;;;;;;;57.92;20.33;;;;;;;;;;4979445;28;20556;-69
2022/11/18 11:15:00;;;;;;;47.40;16.58;;;;;;;;;;4995600;28;20044;-67
2022/11/18 11:17:29;;;;;;;56.50;19.75;;;;;;;;;;4982606;28;20140;-69
2022/11/18 11:20:09;;;;;;;32.65;12.48;;;;;;;;;;4993829;28;20133;-69
2022/11/18 11:22:36;;;;;;;38.22;14.73;;;;;;;;;;4979716;28;20521;-68
2022/11/18 11:25:04;;;;;;;24.85;12.13;;;;;;;;;;4977532;28;20050;-70
2022/11/18 11:27:30;;;;;;;74.97;26.27;;;;;;;;;;4977994;28;20570;-68
2022/11/18 11:30:17;;;;;;;44.72;16.00;;;;;;;;;;4980398;28;20287;-67
2022/11/18 11:33:01;;;;;;;57.13;19.88;;;;;;;;;;4983133;28;20356;-68
2022/11/18 11:35:31;;;;;;;55.55;20.17;;;;;;;;;;4981792;28;20038;-67
2022/11/18 11:38:12;;;;;;;37.47;14.40;;;;;;;;;;4996951;28;20033;-67
2022/11/18 11:40:40;;;;;;;57.25;21.30;;;;;;;;;;4982879;28;20175;-69
2022/11/18 11:43:09;;;;;;;61.58;21.27;;;;;;;;;;4981365;28;20611;-68
2022/11/18 11:45:42;;;;;;;41.75;19.73;;;;;;;;;;4982803;28;20049;-67
2022/11/18 11:48:17;;;;;;;56.97;21.17;;;;;;;;;;4978517;28;20474;-69
2022/11/18 11:50:57;;;;;;;36.38;15.70;;;;;;;;;;4982628;28;20069;-68
2022/11/18 11:53:41;;;;;;;42.20;15.05;;;;;;;;;;4984115;28;20041;-68
2022/11/18 11:56:24;;;;;;;42.03;15.73;;;;;;;;;;4981042;28;20043;-68
2022/11/18 11:58:49;;;;;;;46.60;17.20;;;;;;;;;;4982022;28;20073;-67
2022/11/18 12:01:26;;;;;;;55.92;20.90;;;;;;;;;;4982201;28;20175;-67
2022/11/18 12:03:56;;;;;;;33.90;14.93;;;;;;;;;;4982592;28;20030;-67
2022/11/18 12:06:21;;;;;;;80.38;27.60;;;;;;;;;;4980219;28;20537;-68
2022/11/18 12:09:07;;;;;;;56.08;20.73;;;;;;;;;;4981417;28;20056;-67
2022/11/18 12:11:56;;;;;;;46.25;17.45;;;;;;;;;;4981091;28;20119;-68
2022/11/18 12:14:39;;;;;;;28.90;13.70;;;;;;;;;;4977266;28;20677;-67
2022/11/18 12:17:07;;;;;;;21.60;11.82;;;;;;;;;;4977957;28;20110;-68
2022/11/18 12:19:36;;;;;;;24.40;13.15;;;;;;;;;;4982130;28;20041;-67
2022/11/18 12:22:02;;;;;;;23.40;13.35;;;;;;;;;;4981594;28;20478;-68
2022/11/18 12:24:33;;;;;;;27.85;14.82;;;;;;;;;;5008814;28;21037;-68
2022/11/18 12:26:59;;;;;;;29.35;14.68;;;;;;;;;;4981557;28;20704;-68
2022/11/18 12:29:26;;;;;;;26.55;15.68;;;;;;;;;;4980408;28;20042;-68
2022/11/18 12:31:56;;;;;;;23.38;14.68;;;;;;;;;;4981216;28;20590;-67
2022/11/18 12:34:25;;;;;;;24.40;15.88;;;;;;;;;;4977297;28;20037;-68
2022/11/18 12:36:51;;;;;;;26.08;15.85;;;;;;;;;;4973866;28;20037;-68
2022/11/18 12:39:21;;;;;;;25.27;15.00;;;;;;;;;;5012915;28;20045;-68
2022/11/18 12:44:38;;;;;;;21.80;15.48;;;;;;;;;;4982764;28;20131;-68
2022/11/18 12:47:07;;;;;;;26.83;16.38;;;;;;;;;;4980737;28;20055;-67
2022/11/18 12:49:36;;;;;;;21.63;15.43;;;;;;;;;;4981427;28;20065;-67
2022/11/18 12:52:03;;;;;;;23.52;15.38;;;;;;;;;;4981180;28;20048;-66
2022/11/18 12:54:37;;;;;;;24.15;15.43;;;;;;;;;;4974836;28;20265;-67
2022/11/18 12:57:11;;;;;;;29.80;15.88;;;;;;;;;;4979496;28;20045;-67
2022/11/18 12:59:37;;;;;;;25.17;15.80;;;;;;;;;;4982425;28;20812;-66
2022/11/18 13:02:20;;;;;;;24.20;15.15;;;;;;;;;;5012020;28;20140;-67
2022/11/18 13:05:01;;;;;;;27.15;15.30;;;;;;;;;;5012867;28;20045;-67
2022/11/18 13:10:18;;;;;;;23.80;16.33;;;;;;;;;;4978474;28;20164;-66
2022/11/18 13:12:43;;;;;;;23.67;15.40;;;;;;;;;;4980231;28;20075;-66
2022/11/18 13:18:04;;;;;;;25.15;16.20;;;;;;;;;;4981748;28;20053;-66
2022/11/18 13:20:32;;;;;;;23.48;15.80;;;;;;;;;;4979506;28;20051;-67
2022/11/18 13:25:45;;;;;;;28.70;17.98;;;;;;;;;;4981209;28;20331;-67
2022/11/18 13:28:17;;;;;;;22.60;16.02;;;;;;;;;;4980894;28;20564;-67
2022/11/18 13:30:53;;;;;;;27.70;16.17;;;;;;;;;;4981838;28;20041;-66
2022/11/18 13:33:24;;;;;;;28.58;16.00;;;;;;;;;;4979766;28;20091;-67
2022/11/18 13:35:52;;;;;;;25.23;16.20;;;;;;;;;;4980636;28;20045;-67
2022/11/18 13:38:27;;;;;;;26.52;16.38;;;;;;;;;;4979923;28;20084;-67
2022/11/18 13:41:06;;;;;;;26.65;16.25;;;;;;;;;;5010692;28;20037;-67
2022/11/18 13:43:35;;;;;;;22.95;16.02;;;;;;;;;;4979130;28;20045;-66
2022/11/18 13:46:03;;;;;;;24.95;16.98;;;;;;;;;;4971752;28;20049;-65
2022/11/18 13:48:32;;;;;;;27.58;17.70;;;;;;;;;;4978354;28;20041;-65
2022/11/18 13:50:59;;;;;;;26.00;16.75;;;;;;;;;;4977640;28;20490;-66
2022/11/18 13:53:29;;;;;;;28.58;17.50;;;;;;;;;;4977811;28;20805;-66
2022/11/18 13:56:01;;;;;;;27.85;16.73;;;;;;;;;;4980511;28;20119;-66
2022/11/18 13:58:37;;;;;;;33.42;18.00;;;;;;;;;;4984338;28;20452;-66
2022/11/18 14:01:10;;;;;;;25.73;17.20;;;;;;;;;;4979266;28;20199;-67
2022/11/18 14:03:46;;;;;;;30.75;17.83;;;;;;;;;;4980986;28;20055;-67
2022/11/18 14:06:22;;;;;;;26.38;17.67;;;;;;;;;;4976318;28;20501;-66
2022/11/18 14:08:49;;;;;;;30.55;17.00;;;;;;;;;;4999252;28;20037;-67
2022/11/18 14:11:32;;;;;;;29.05;16.65;;;;;;;;;;4995843;28;20029;-66
2022/11/18 14:14:00;;;;;;;25.50;17.45;;;;;;;;;;4978853;28;20087;-66
2022/11/18 14:16:35;;;;;;;26.35;17.77;;;;;;;;;;4979138;28;20336;-66
2022/11/18 14:19:00;;;;;;;28.75;17.40;;;;;;;;;;4979882;28;20858;-66
2022/11/18 14:21:33;;;;;;;27.20;17.75;;;;;;;;;;4980578;28;20109;-67
2022/11/18 14:23:59;;;;;;;29.63;17.63;;;;;;;;;;4981321;28;20071;-67
2022/11/18 14:26:28;;;;;;;28.15;17.13;;;;;;;;;;4974710;28;20455;-66
2022/11/18 14:28:58;;;;;;;24.98;16.65;;;;;;;;;;4980318;28;20034;-67
2022/11/18 14:31:28;;;;;;;27.80;17.20;;;;;;;;;;4979879;28;20072;-66
2022/11/18 14:34:02;;;;;;;27.38;17.23;;;;;;;;;;4981277;28;20062;-67
2022/11/18 14:36:28;;;;;;;27.08;17.20;;;;;;;;;;4979330;28;20099;-67
2022/11/18 14:38:56;;;;;;;27.25;18.00;;;;;;;;;;4980238;28;20038;-67
2022/11/18 14:44:07;;;;;;;31.60;18.35;;;;;;;;;;4982400;28;20046;-67
2022/11/18 14:46:36;;;;;;;30.83;18.55;;;;;;;;;;4978498;28;20053;-67
2022/11/18 14:49:03;;;;;;;30.20;18.77;;;;;;;;;;5010577;28;20671;-67
2022/11/18 14:51:29;;;;;;;28.90;18.85;;;;;;;;;;5005451;28;20045;-68
2022/11/18 14:53:54;;;;;;;34.22;19.27;;;;;;;;;;4979478;28;20052;-68
2022/11/18 14:56:22;;;;;;;24.42;17.83;;;;;;;;;;5010347;28;20044;-68
2022/11/18 14:58:48;;;;;;;29.55;17.10;;;;;;;;;;4979827;28;20782;-67